Aérodrome :
LOGIN :

S'inscrire | Disclaimer

   EN    FR    IT 

 










Légende :    VFR   VFR Marginal   IFR   IFR Intensif   IFR Très Intensif
Visi : 
Plafond : 
>= 8 km
>= 3000ft
5 à 8 km
1000 à 3000 ft
1500m à 5 km
500 à 1000 ft
800 à 1500m
200 à 500 ft
< 800m
< 200 ft
Symboles :   Orages  Brouillard  Fortes neiges  Fortes précipitations  Vent > 20 kt
SIGMETs :   Divers  Orages  Givrage  Turbulence  Onde Orograph.  Cendres Volcan.







- Altitude de l'aérodrome : 885 ft
- Code IATA : BAS
- Voir les cartes d'approche


LFSB - Bale-Mulhouse

DERNIER METAR :
  • 251400Z 22007KT 7000 -RA FEW030TCU BKN040 12/09 Q1008 TEMPO 3000 SHRA FEW030TCU BKN040

METARs EXPIRÉS :
  • 251330Z 23007KT 9000 -RA FEW030TCU SCT040 BKN066 12/09 Q1008 TEMPO 3000 SHRA FEW030TCU BKN040
  • 251300Z 22008KT 9000 -RA FEW030TCU SCT040 BKN066 13/08 Q1008 TEMPO 3000 SHRA FEW030TCU BKN040
  • 251230Z 24008KT 210V290 8000 -RA FEW030TCU BKN040 BKN066 14/06 Q1008 TEMPO 3000 SHRA FEW030TCU BKN040
  • 251200Z 28010KT 210V310 9999 -RA FEW030TCU BKN040 BKN066 14/05 Q1008 NOSIG
  • 251130Z 30009KT 250V330 9999 FEW033 SCT040 BKN120 15/05 Q1008 NOSIG

TAF TAF LFSB
Valide du 25 à 12h jusqu'au 26 à 12h UTC


251100Z 2512/2612 29012KT 9999 SCT040 BKN070
TEMPO 2512/2518 3000 SHRA FEW030TCU BKN040
BECMG 2518/2520 35010KT 5000 -RA BKN013
PROB40
TEMPO 2520/2524 3000 RA BKN008
BECMG 2600/2602 BKN008
PROB40 2602/2607 1200 RASN BKN002
BECMG 2608/2610 9999 NSW BKN013
Météo : +33 3 89 90 31 11
Pas de NOTAMs connus pour ce terrain.



MET'MAP, la Météo Aéronautique d'un coup d'oeil ! - Copyright ORBIFLY Décembre 2007 - Disclaimer

ORBIFLY MET'MAP TEAM :

Programmation & Développement : Alexandra Zaïnal
Conception & Développement : Baudouin d'Aumeries
Co-Programmation & Développement : Marc-Olivier Méhu
Soutien technique & logistique : Manuel Goepfert

Contact : metmap@orbifly.com




SOURCES & CREDITS :

   NOAA